Time;durP1;ratioP1;P1;durP2;ratioP2;P2;SDS_P1;SDS_P2;PMS_P1;PMS_P2;Temp;Humidity;BMP_temperature;BMP_pressure;BME280_temperature;BME280_humidity;BME280_pressure;Samples;Min_cycle;Max_cycle;Signal;HPM_P1;HPM_P2
2021/09/21 00:01:36;;;;;;;;;;;24.10;57.80;;;;;;5074309;28;19932;-61
2021/09/21 00:04:03;;;;;;;;;;;24.10;57.70;;;;;;5057741;28;19925;-61
2021/09/21 00:06:30;;;;;;;;;;;24.20;57.80;;;;;;5075038;28;20003;-61
2021/09/21 00:08:57;;;;;;;;;;;24.20;57.80;;;;;;5073459;28;19935;-61
2021/09/21 00:11:24;;;;;;;;;;;24.10;57.70;;;;;;5075729;28;19924;-61
2021/09/21 00:13:51;;;;;;;;;;;24.10;57.80;;;;;;5075257;28;19929;-61
2021/09/21 00:16:18;;;;;;;;;;;24.10;57.80;;;;;;5075329;28;19929;-61
2021/09/21 00:18:46;;;;;;;;;;;24.10;57.80;;;;;;5062567;28;19924;-61
2021/09/21 00:21:13;;;;;;;;;;;24.10;57.80;;;;;;5057372;28;20380;-61
2021/09/21 00:23:40;;;;;;;;;;;24.10;57.90;;;;;;5068295;28;19949;-61
2021/09/21 00:26:07;;;;;;;;;;;24.10;57.90;;;;;;5075046;28;19924;-61
2021/09/21 00:28:34;;;;;;;;;;;24.10;57.90;;;;;;5075213;28;19931;-61
2021/09/21 00:31:09;;;;;;;;;;;24.10;57.90;;;;;;5073637;28;20372;-61
2021/09/21 00:33:51;;;;;;;;;;;24.10;57.80;;;;;;5075372;28;20011;-61
2021/09/21 00:36:19;;;;;;;;;;;24.10;57.80;;;;;;5064523;28;20438;-61
2021/09/21 00:38:46;;;;;;;;;;;24.10;57.80;;;;;;5066640;28;19925;-61
2021/09/21 00:41:13;;;;;;;;;;;24.10;57.80;;;;;;5081317;28;20325;-61
2021/09/21 00:43:40;;;;;;;;;;;24.10;57.80;;;;;;5083786;28;19924;-61
2021/09/21 00:46:07;;;;;;;;;;;24.10;57.80;;;;;;5074962;28;19925;-61
2021/09/21 00:48:34;;;;;;;;;;;24.10;57.90;;;;;;5067865;28;19925;-61
2021/09/21 00:51:02;;;;;;;;;;;24.10;57.90;;;;;;5057039;28;19925;-61
2021/09/21 00:53:30;;;;;;;;;;;24.10;58.00;;;;;;5058181;28;19947;-61
2021/09/21 00:55:57;;;;;;;;;;;24.10;58.00;;;;;;5073533;28;20023;-61
2021/09/21 00:58:24;;;;;;;;;;;24.10;57.90;;;;;;5074359;28;19924;-61
2021/09/21 01:00:51;;;;;;;;;;;24.10;57.90;;;;;;5073600;28;19924;-61
2021/09/21 01:03:18;;;;;;;;;;;24.10;57.90;;;;;;5056056;28;19932;-61
2021/09/21 01:05:45;;;;;;;;;;;24.10;57.90;;;;;;5072245;28;19925;-61
2021/09/21 01:08:12;;;;;;;;;;;24.10;58.00;;;;;;5074020;28;19932;-61
2021/09/21 01:10:39;;;;;;;;;;;24.10;57.90;;;;;;5071484;28;19974;-61
2021/09/21 01:13:06;;;;;;;;;;;24.10;57.90;;;;;;5073169;28;19924;-60
2021/09/21 01:15:33;;;;;;;;;;;24.10;57.90;;;;;;5074189;28;19982;-61
2021/09/21 01:18:00;;;;;;;;;;;24.10;57.90;;;;;;5061934;28;19925;-61
2021/09/21 01:20:27;;;;;;;;;;;24.10;58.00;;;;;;5071388;28;20326;-61
2021/09/21 01:22:54;;;;;;;;;;;24.10;58.00;;;;;;5073835;28;20372;-61
2021/09/21 01:25:22;;;;;;;;;;;24.10;58.00;;;;;;5074411;28;19928;-61
2021/09/21 01:27:49;;;;;;;;;;;24.10;58.00;;;;;;5063659;28;19925;-61
2021/09/21 01:30:16;;;;;;;;;;;24.10;58.00;;;;;;5056691;28;19931;-61
2021/09/21 01:32:43;;;;;;;;;;;24.10;57.90;;;;;;5066191;28;19974;-61
2021/09/21 01:35:11;;;;;;;;;;;24.10;57.90;;;;;;5073790;28;20019;-61
2021/09/21 01:37:38;;;;;;;;;;;24.10;57.90;;;;;;5074167;28;19925;-61
2021/09/21 01:40:06;;;;;;;;;;;24.10;57.90;;;;;;5073805;28;19925;-61
2021/09/21 01:42:43;;;;;;;;;;;24.10;57.90;;;;;;5072653;28;20300;-61
2021/09/21 01:45:10;;;;;;;;;;;24.10;57.90;;;;;;5072512;28;19925;-61
2021/09/21 01:47:38;;;;;;;;;;;24.10;57.80;;;;;;5072665;28;19989;-61
2021/09/21 01:55:20;;;;;;;;;;;24.10;57.90;;;;;;5073356;28;19931;-61
2021/09/21 02:00:33;;;;;;;;;;;24.10;57.90;;;;;;5073344;28;20035;-61
2021/09/21 02:03:00;;;;;;;;;;;24.10;57.90;;;;;;5073578;28;20010;-61
2021/09/21 02:05:27;;;;;;;;;;;24.10;57.90;;;;;;5073519;28;19931;-61
2021/09/21 02:07:54;;;;;;;;;;;24.10;57.90;;;;;;5070063;28;20015;-61
2021/09/21 02:10:21;;;;;;;;;;;24.10;58.00;;;;;;5057549;28;19960;-61
2021/09/21 02:12:48;;;;;;;;;;;24.10;58.00;;;;;;5073371;28;20375;-61
2021/09/21 02:15:15;;;;;;;;;;;24.10;57.90;;;;;;5073426;28;19928;-61
2021/09/21 02:17:42;;;;;;;;;;;24.10;57.90;;;;;;5084957;28;20010;-61
2021/09/21 02:20:10;;;;;;;;;;;24.10;58.50;;;;;;5073631;28;19972;-61
2021/09/21 02:22:37;;;;;;;;;;;24.10;57.90;;;;;;5071312;28;19970;-61
2021/09/21 02:25:05;;;;;;;;;;;24.10;57.90;;;;;;5055952;28;19932;-61
2021/09/21 02:27:32;;;;;;;;;;;24.10;58.00;;;;;;5057004;28;19931;-61
2021/09/21 02:29:59;;;;;;;;;;;24.10;58.00;;;;;;5072480;28;19928;-61
2021/09/21 02:32:26;;;;;;;;;;;24.10;58.00;;;;;;5059079;28;19924;-61
2021/09/21 02:34:53;;;;;;;;;;;24.10;58.00;;;;;;5056802;28;19936;-61
2021/09/21 02:37:20;;;;;;;;;;;24.10;58.00;;;;;;5069042;28;19925;-61
2021/09/21 02:39:47;;;;;;;;;;;24.10;58.60;;;;;;5073287;28;19992;-61
2021/09/21 02:42:14;;;;;;;;;;;24.10;58.00;;;;;;5072840;28;20458;-61
2021/09/21 02:44:41;;;;;;;;;;;24.10;58.00;;;;;;5071818;28;19978;-61
2021/09/21 02:47:09;;;;;;;;;;;24.10;58.00;;;;;;5073147;28;19924;-61
2021/09/21 02:49:36;;;;;;;;;;;24.10;58.00;;;;;;5073255;28;19929;-61
2021/09/21 02:52:03;;;;;;;;;;;24.10;58.10;;;;;;5105350;28;19998;-61
2021/09/21 02:54:30;;;;;;;;;;;24.10;58.10;;;;;;5072857;28;19924;-61
2021/09/21 02:56:57;;;;;;;;;;;24.10;58.10;;;;;;5070581;28;19954;-61
2021/09/21 02:59:24;;;;;;;;;;;24.10;58.10;;;;;;5069335;28;20373;-61
2021/09/21 03:01:52;;;;;;;;;;;24.10;58.10;;;;;;5073902;28;19932;-61
2021/09/21 03:04:31;;;;;;;;;;;24.10;58.10;;;;;;5072985;28;19932;-61
2021/09/21 03:07:09;;;;;;;;;;;24.10;58.10;;;;;;5070699;28;19925;-61
2021/09/21 03:17:27;;;;;;;;;;;24.10;58.10;;;;;;5066413;28;19932;-61
2021/09/21 03:19:59;;;;;;;;;;;24.10;58.10;;;;;;5058740;28;19925;-61
2021/09/21 03:22:27;;;;;;;;;;;24.10;58.00;;;;;;5072770;28;19960;-61
2021/09/21 03:24:54;;;;;;;;;;;24.10;58.10;;;;;;5073123;28;19943;-61
2021/09/21 03:27:22;;;;;;;;;;;24.10;58.70;;;;;;5074964;28;19971;-61
2021/09/21 03:29:49;;;;;;;;;;;24.00;58.10;;;;;;5076185;28;19944;-61
2021/09/21 03:32:16;;;;;;;;;;;24.00;58.10;;;;;;5074944;28;19931;-61
2021/09/21 03:34:43;;;;;;;;;;;24.00;58.10;;;;;;5076325;28;20609;-61
2021/09/21 03:37:11;;;;;;;;;;;24.00;58.10;;;;;;5075390;28;19932;-61
2021/09/21 03:39:38;;;;;;;;;;;24.00;58.10;;;;;;5074418;28;19924;-61
2021/09/21 03:42:06;;;;;;;;;;;24.00;58.10;;;;;;5076236;28;19928;-60
2021/09/21 03:44:33;;;;;;;;;;;24.00;58.10;;;;;;5076013;28;19924;-61
2021/09/21 03:47:00;;;;;;;;;;;24.00;58.10;;;;;;5075154;28;19933;-61
2021/09/21 03:49:27;;;;;;;;;;;24.00;58.10;;;;;;5075171;28;19931;-61
2021/09/21 03:51:54;;;;;;;;;;;24.00;58.10;;;;;;5075785;28;20403;-61
2021/09/21 03:54:21;;;;;;;;;;;24.00;58.70;;;;;;5075775;28;19925;-60
2021/09/21 03:56:48;;;;;;;;;;;24.00;58.10;;;;;;5075849;28;19932;-61
2021/09/21 03:59:15;;;;;;;;;;;24.00;58.10;;;;;;5076655;28;19951;-61
2021/09/21 04:01:42;;;;;;;;;;;24.00;58.70;;;;;;5075638;28;19925;-61
2021/09/21 04:04:10;;;;;;;;;;;24.00;58.10;;;;;;5076065;28;19951;-61
2021/09/21 04:06:37;;;;;;;;;;;24.00;58.20;;;;;;5075639;28;19931;-61
2021/09/21 04:09:04;;;;;;;;;;;24.00;58.20;;;;;;5076274;28;19928;-61
2021/09/21 04:11:31;;;;;;;;;;;24.00;58.10;;;;;;5075955;28;19931;-61
2021/09/21 04:14:00;;;;;;;;;;;24.00;58.20;;;;;;5074391;28;19924;-61
2021/09/21 04:16:29;;;;;;;;;;;24.00;58.10;;;;;;5075504;28;19924;-61
2021/09/21 04:18:57;;;;;;;;;;;24.00;58.10;;;;;;5063503;28;19925;-61
2021/09/21 04:21:24;;;;;;;;;;;24.00;58.20;;;;;;5075512;28;19925;-61
2021/09/21 04:23:52;;;;;;;;;;;24.00;58.20;;;;;;5075322;28;19977;-61
2021/09/21 04:26:19;;;;;;;;;;;24.00;58.20;;;;;;5072778;28;20392;-61
2021/09/21 04:28:46;;;;;;;;;;;24.00;58.20;;;;;;5073983;28;19928;-61
2021/09/21 04:31:15;;;;;;;;;;;24.00;58.30;;;;;;5056962;28;20085;-61
2021/09/21 04:33:43;;;;;;;;;;;24.00;58.30;;;;;;5075257;28;19924;-61
2021/09/21 04:36:10;;;;;;;;;;;24.00;58.20;;;;;;5074845;28;19925;-61
2021/09/21 04:38:38;;;;;;;;;;;24.00;58.20;;;;;;5073392;28;19928;-61
2021/09/21 04:41:05;;;;;;;;;;;24.00;58.20;;;;;;5057778;28;19929;-61
2021/09/21 04:43:35;;;;;;;;;;;24.00;58.20;;;;;;5073116;28;19930;-61
2021/09/21 04:46:03;;;;;;;;;;;24.00;58.20;;;;;;5074936;28;19931;-61
2021/09/21 04:48:30;;;;;;;;;;;24.00;58.20;;;;;;5074993;28;19946;-61
2021/09/21 04:50:57;;;;;;;;;;;24.00;58.20;;;;;;5074984;28;19925;-61
2021/09/21 04:53:24;;;;;;;;;;;24.00;58.20;;;;;;5061050;28;20328;-61
2021/09/21 04:55:51;;;;;;;;;;;24.00;58.20;;;;;;5070383;28;19924;-61
2021/09/21 04:58:18;;;;;;;;;;;24.00;58.20;;;;;;5073521;28;20372;-61
2021/09/21 05:00:45;;;;;;;;;;;24.00;58.20;;;;;;5084420;28;19928;-61
2021/09/21 05:03:12;;;;;;;;;;;24.00;58.20;;;;;;5073690;28;20281;-61
2021/09/21 05:05:39;;;;;;;;;;;24.00;58.20;;;;;;5065860;28;19924;-61
2021/09/21 05:08:06;;;;;;;;;;;24.00;58.20;;;;;;5074384;28;19933;-61
2021/09/21 05:10:33;;;;;;;;;;;24.00;58.20;;;;;;5068215;28;20408;-61
2021/09/21 05:13:00;;;;;;;;;;;24.00;58.20;;;;;;5056547;28;19931;-61
2021/09/21 05:15:27;;;;;;;;;;;24.00;58.20;;;;;;5061901;28;19955;-61
2021/09/21 05:17:54;;;;;;;;;;;24.00;58.20;;;;;;5069263;28;19929;-61
2021/09/21 05:20:21;;;;;;;;;;;24.00;58.20;;;;;;5074031;28;19931;-61
2021/09/21 05:22:52;;;;;;;;;;;24.00;58.20;;;;;;5074003;28;19932;-61
2021/09/21 05:25:19;;;;;;;;;;;24.00;58.20;;;;;;5072715;28;20388;-61
2021/09/21 05:27:47;;;;;;;;;;;24.00;58.20;;;;;;5072563;28;20376;-60
2021/09/21 05:30:14;;;;;;;;;;;24.00;58.20;;;;;;5055121;28;19974;-61
2021/09/21 05:32:41;;;;;;;;;;;24.00;58.20;;;;;;5071278;28;19924;-61
2021/09/21 05:35:09;;;;;;;;;;;24.00;58.20;;;;;;5073482;28;19955;-61
2021/09/21 05:37:36;;;;;;;;;;;24.00;58.20;;;;;;5073215;28;20298;-61
2021/09/21 05:40:04;;;;;;;;;;;24.00;58.10;;;;;;5090400;28;20295;-61
2021/09/21 05:42:31;;;;;;;;;;;24.00;58.10;;;;;;5090522;28;20333;-61
2021/09/21 05:44:59;;;;;;;;;;;24.00;58.10;;;;;;5059279;28;19925;-61
2021/09/21 05:47:26;;;;;;;;;;;24.10;58.20;;;;;;5069243;28;19924;-61
2021/09/21 05:49:53;;;;;;;;;;;24.00;58.10;;;;;;5059952;28;20038;-60
2021/09/21 05:52:20;;;;;;;;;;;24.00;58.10;;;;;;5069027;28;20388;-61
2021/09/21 05:54:47;;;;;;;;;;;24.00;58.10;;;;;;5061118;28;19925;-60
2021/09/21 05:57:14;;;;;;;;;;;24.00;58.10;;;;;;5066748;28;20285;-61
2021/09/21 05:59:41;;;;;;;;;;;24.10;58.10;;;;;;5073136;28;19932;-61
2021/09/21 06:02:08;;;;;;;;;;;24.10;58.20;;;;;;5073417;28;19932;-61
2021/09/21 06:04:35;;;;;;;;;;;24.10;58.10;;;;;;5098433;27;19928;-61
2021/09/21 06:07:02;;;;;;;;;;;24.10;58.10;;;;;;5093244;28;19925;-60
2021/09/21 06:09:29;;;;;;;;;;;24.00;58.10;;;;;;5078392;28;19924;-61
2021/09/21 06:11:56;;;;;;;;;;;24.10;58.10;;;;;;5085319;28;19925;-61
2021/09/21 06:14:23;;;;;;;;;;;24.10;58.10;;;;;;5069730;28;19999;-61
2021/09/21 06:16:51;;;;;;;;;;;24.10;58.10;;;;;;5058890;28;19971;-60
2021/09/21 06:19:20;;;;;;;;;;;24.10;58.10;;;;;;5071180;28;19994;-61
2021/09/21 06:21:47;;;;;;;;;;;24.10;58.10;;;;;;5063453;28;19932;-61
2021/09/21 06:24:14;;;;;;;;;;;24.10;58.10;;;;;;5088748;28;19996;-60
2021/09/21 06:26:41;;;;;;;;;;;24.10;58.00;;;;;;5073081;28;20010;-60
2021/09/21 06:29:08;;;;;;;;;;;24.10;58.00;;;;;;5055662;28;19924;-61
2021/09/21 06:31:35;;;;;;;;;;;24.10;58.00;;;;;;5069823;28;19929;-59
2021/09/21 06:34:02;;;;;;;;;;;24.10;58.00;;;;;;5070440;28;19973;-60
2021/09/21 06:36:29;;;;;;;;;;;24.10;57.90;;;;;;5053926;28;20396;-60
2021/09/21 06:38:56;;;;;;;;;;;24.10;58.00;;;;;;5070304;28;19993;-60
2021/09/21 06:41:23;;;;;;;;;;;24.10;58.00;;;;;;5085617;28;19931;-61
2021/09/21 06:43:50;;;;;;;;;;;24.10;58.00;;;;;;5062649;28;19929;-60
2021/09/21 06:46:17;;;;;;;;;;;24.10;57.90;;;;;;5081104;28;19925;-60
2021/09/21 06:48:44;;;;;;;;;;;24.10;57.90;;;;;;5077404;28;20007;-61
2021/09/21 06:51:11;;;;;;;;;;;24.10;57.90;;;;;;5071207;28;20015;-61
2021/09/21 06:53:39;;;;;;;;;;;24.10;57.90;;;;;;5082254;28;19947;-61
2021/09/21 06:56:06;;;;;;;;;;;24.10;57.90;;;;;;5075825;28;19925;-60
2021/09/21 06:58:35;;;;;;;;;;;24.10;57.80;;;;;;5056131;28;19974;-60
2021/09/21 07:01:02;;;;;;;;;;;24.10;57.80;;;;;;5057740;28;19967;-60
2021/09/21 07:03:30;;;;;;;;;;;24.10;57.80;;;;;;5059494;28;19932;-60
2021/09/21 07:05:58;;;;;;;;;;;24.20;57.90;;;;;;5058530;28;19986;-61
2021/09/21 07:08:25;;;;;;;;;;;24.20;57.80;;;;;;5058213;28;19928;-61
2021/09/21 07:10:52;;;;;;;;;;;24.20;57.80;;;;;;5061876;28;19968;-60
2021/09/21 07:13:20;;;;;;;;;;;24.20;57.70;;;;;;5075933;28;19924;-60
2021/09/21 07:15:47;;;;;;;;;;;24.20;57.70;;;;;;5074938;28;20022;-61
2021/09/21 07:18:14;;;;;;;;;;;24.20;57.70;;;;;;5075820;28;19972;-61
2021/09/21 07:20:41;;;;;;;;;;;24.20;57.60;;;;;;5074216;28;19930;-61
2021/09/21 07:23:08;;;;;;;;;;;24.20;57.60;;;;;;5075676;28;19944;-60
2021/09/21 07:25:35;;;;;;;;;;;24.20;57.60;;;;;;5076988;28;19928;-60
2021/09/21 07:28:03;;;;;;;;;;;24.30;57.60;;;;;;5055556;28;19924;-61
2021/09/21 07:30:30;;;;;;;;;;;24.20;57.50;;;;;;5074508;28;20467;-61
2021/09/21 07:32:57;;;;;;;;;;;24.30;57.50;;;;;;5059483;28;19925;-60
2021/09/21 07:35:25;;;;;;;;;;;24.30;57.50;;;;;;5073048;28;19931;-59
2021/09/21 07:37:52;;;;;;;;;;;24.30;57.50;;;;;;5074212;28;19928;-61
2021/09/21 07:40:20;;;;;;;;;;;24.30;57.50;;;;;;5075761;28;19999;-61
2021/09/21 07:42:48;;;;;;;;;;;24.30;57.40;;;;;;5061420;28;19929;-61
2021/09/21 07:45:15;;;;;;;;;;;24.40;57.40;;;;;;5059475;28;20418;-60
2021/09/21 07:47:43;;;;;;;;;;;24.40;57.30;;;;;;5080401;28;19970;-61
2021/09/21 07:50:12;;;;;;;;;;;24.40;57.30;;;;;;5070130;28;19947;-61
2021/09/21 07:52:39;;;;;;;;;;;24.40;57.80;;;;;;5066698;28;19925;-61
2021/09/21 07:55:06;;;;;;;;;;;24.40;57.10;;;;;;5073765;28;19939;-60
2021/09/21 07:57:34;;;;;;;;;;;24.50;57.20;;;;;;5073628;28;19931;-60
2021/09/21 08:00:01;;;;;;;;;;;24.50;57.10;;;;;;5074800;28;19931;-61
2021/09/21 08:02:28;;;;;;;;;;;24.50;57.00;;;;;;5072227;28;19994;-60
2021/09/21 08:04:56;;;;;;;;;;;24.50;57.00;;;;;;5075039;28;19970;-61
2021/09/21 08:07:25;;;;;;;;;;;24.60;57.00;;;;;;5078508;28;19962;-60
2021/09/21 08:09:52;;;;;;;;;;;24.60;56.90;;;;;;5088460;28;20334;-60
2021/09/21 08:12:19;;;;;;;;;;;24.60;56.90;;;;;;5072000;28;20292;-61
2021/09/21 08:14:49;;;;;;;;;;;24.60;56.80;;;;;;5069358;28;20299;-60
2021/09/21 08:17:17;;;;;;;;;;;24.60;56.80;;;;;;5071637;28;19979;-60
2021/09/21 08:19:44;;;;;;;;;;;24.60;56.80;;;;;;5073939;28;19925;-61
2021/09/21 08:22:11;;;;;;;;;;;24.60;57.40;;;;;;5074951;28;19924;-61
2021/09/21 08:24:38;;;;;;;;;;;24.60;56.70;;;;;;5072588;28;19944;-61
2021/09/21 08:27:05;;;;;;;;;;;24.70;56.70;;;;;;5071674;28;20324;-61
2021/09/21 08:29:32;;;;;;;;;;;24.70;56.60;;;;;;5074302;28;19925;-61
2021/09/21 08:31:59;;;;;;;;;;;24.70;56.60;;;;;;5058592;28;19925;-61
2021/09/21 08:34:27;;;;;;;;;;;24.70;56.60;;;;;;5073525;28;20372;-60
2021/09/21 08:36:54;;;;;;;;;;;24.70;56.50;;;;;;5074166;28;19931;-61
2021/09/21 08:39:21;;;;;;;;;;;24.70;56.50;;;;;;5073211;28;19924;-61
2021/09/21 08:41:48;;;;;;;;;;;24.80;56.50;;;;;;5074864;28;19924;-61
2021/09/21 08:44:15;;;;;;;;;;;24.70;56.50;;;;;;5072734;28;19924;-60
2021/09/21 08:46:46;;;;;;;;;;;24.80;56.50;;;;;;5063758;28;19925;-61
2021/09/21 08:49:14;;;;;;;;;;;24.80;56.50;;;;;;5098317;28;19983;-61
2021/09/21 08:51:41;;;;;;;;;;;24.80;56.50;;;;;;5074148;28;19928;-61
2021/09/21 08:54:08;;;;;;;;;;;24.80;56.50;;;;;;5065892;28;19935;-61
2021/09/21 08:56:35;;;;;;;;;;;24.80;56.40;;;;;;5064438;28;19974;-60
2021/09/21 08:59:12;;;;;;;;;;;24.80;56.30;;;;;;5073570;28;20410;-60
2021/09/21 09:01:41;;;;;;;;;;;24.80;56.30;;;;;;5072708;28;20314;-60
2021/09/21 09:04:09;;;;;;;;;;;24.90;56.30;;;;;;5073541;28;20020;-61
2021/09/21 09:06:47;;;;;;;;;;;24.90;56.20;;;;;;5073101;28;20285;-61
2021/09/21 09:09:18;;;;;;;;;;;24.90;56.20;;;;;;5066883;28;19993;-61
2021/09/21 09:11:49;;;;;;;;;;;24.90;56.20;;;;;;5061935;28;20368;-60
2021/09/21 09:14:20;;;;;;;;;;;24.90;56.10;;;;;;5072265;28;20284;-60
2021/09/21 09:16:50;;;;;;;;;;;24.90;56.00;;;;;;5072286;28;20300;-61
2021/09/21 09:19:17;;;;;;;;;;;25.00;56.10;;;;;;5073856;28;19928;-60
2021/09/21 09:21:46;;;;;;;;;;;25.00;56.10;;;;;;5070652;28;19925;-60
2021/09/21 09:24:14;;;;;;;;;;;25.00;55.90;;;;;;5058222;28;19928;-61
2021/09/21 09:26:42;;;;;;;;;;;25.00;55.90;;;;;;5071751;28;19925;-60
2021/09/21 09:29:11;;;;;;;;;;;25.00;55.80;;;;;;5056563;28;19932;-61
2021/09/21 09:31:39;;;;;;;;;;;25.10;55.80;;;;;;5056069;28;19924;-61
2021/09/21 09:34:25;;;;;;;;;;;25.10;55.80;;;;;;5054946;28;19928;-60
2021/09/21 09:36:57;;;;;;;;;;;25.20;55.70;;;;;;5058007;28;19935;-60
2021/09/21 09:39:26;;;;;;;;;;;25.20;55.70;;;;;;5057842;28;24171;-60
2021/09/21 09:41:54;;;;;;;;;;;25.20;55.60;;;;;;5071950;28;19994;-61
2021/09/21 09:44:23;;;;;;;;;;;25.20;55.60;;;;;;5055624;28;19932;-61
2021/09/21 09:46:54;;;;;;;;;;;25.20;55.60;;;;;;5055151;28;19929;-61
2021/09/21 09:49:26;;;;;;;;;;;25.20;55.60;;;;;;5054354;28;19929;-61
2021/09/21 09:51:54;;;;;;;;;;;25.20;55.50;;;;;;5054836;28;19971;-61
2021/09/21 09:54:22;;;;;;;;;;;25.20;55.50;;;;;;5052858;28;19925;-61
2021/09/21 09:56:49;;;;;;;;;;;25.30;55.40;;;;;;5055054;28;19975;-61
2021/09/21 09:59:16;;;;;;;;;;;25.30;55.40;;;;;;5088936;28;19935;-60
2021/09/21 10:01:43;;;;;;;;;;;25.30;55.40;;;;;;5073799;28;19924;-61
2021/09/21 10:04:12;;;;;;;;;;;25.30;55.30;;;;;;5072669;28;20357;-62
2021/09/21 10:06:40;;;;;;;;;;;25.30;55.30;;;;;;5070446;28;20443;-61
2021/09/21 10:09:07;;;;;;;;;;;25.30;55.30;;;;;;5072896;28;19931;-61
2021/09/21 10:11:36;;;;;;;;;;;25.30;55.40;;;;;;5062948;28;20352;-61
2021/09/21 10:14:03;;;;;;;;;;;25.30;55.40;;;;;;5069329;28;19925;-61
2021/09/21 10:16:31;;;;;;;;;;;25.30;55.40;;;;;;5068145;28;19954;-61
2021/09/21 10:19:00;;;;;;;;;;;25.30;55.40;;;;;;5070013;28;19978;-61
2021/09/21 10:21:29;;;;;;;;;;;25.20;55.40;;;;;;5053302;28;19986;-61
2021/09/21 10:23:59;;;;;;;;;;;25.20;55.40;;;;;;5069927;28;19974;-61
2021/09/21 10:26:26;;;;;;;;;;;25.30;55.40;;;;;;5068078;28;20296;-61
2021/09/21 10:28:57;;;;;;;;;;;25.30;55.40;;;;;;5062478;28;19929;-58
2021/09/21 10:31:26;;;;;;;;;;;25.30;55.40;;;;;;5071986;28;19947;-61
2021/09/21 10:33:53;;;;;;;;;;;25.30;55.40;;;;;;5069256;28;19925;-61
2021/09/21 10:36:22;;;;;;;;;;;25.30;55.40;;;;;;5072421;28;19924;-61
2021/09/21 10:38:56;;;;;;;;;;;25.30;55.40;;;;;;5074783;28;19966;-61
2021/09/21 10:41:23;;;;;;;;;;;25.30;55.30;;;;;;5063388;28;19924;-61
2021/09/21 10:44:00;;;;;;;;;;;25.30;55.20;;;;;;5057849;28;19924;-61
2021/09/21 10:46:27;;;;;;;;;;;25.20;55.30;;;;;;5068469;28;20285;-58
2021/09/21 10:49:00;;;;;;;;;;;25.30;55.40;;;;;;5068161;28;19924;-61
2021/09/21 10:51:29;;;;;;;;;;;25.30;55.30;;;;;;5065480;28;19939;-59
2021/09/21 10:54:03;;;;;;;;;;;25.30;55.40;;;;;;5076064;28;19929;-59
2021/09/21 10:56:31;;;;;;;;;;;25.30;55.30;;;;;;5072444;28;19924;-61
2021/09/21 10:58:59;;;;;;;;;;;25.30;55.30;;;;;;5065931;28;19932;-61
2021/09/21 11:01:26;;;;;;;;;;;25.30;55.40;;;;;;5065421;28;19929;-60
2021/09/21 11:03:53;;;;;;;;;;;25.30;55.30;;;;;;5077238;28;20015;-61
2021/09/21 11:06:21;;;;;;;;;;;25.30;55.30;;;;;;5061594;28;19982;-59
2021/09/21 11:08:48;;;;;;;;;;;25.30;55.30;;;;;;5059839;28;19925;-60
2021/09/21 11:11:16;;;;;;;;;;;25.30;55.40;;;;;;5074172;28;19928;-61
2021/09/21 11:13:43;;;;;;;;;;;25.30;55.40;;;;;;5065178;28;19925;-60
2021/09/21 11:16:12;;;;;;;;;;;25.30;55.40;;;;;;5058866;28;19948;-61
2021/09/21 11:18:44;;;;;;;;;;;25.30;55.40;;;;;;5059561;28;20060;-61
2021/09/21 11:21:11;;;;;;;;;;;25.30;55.40;;;;;;5073249;28;19964;-61
2021/09/21 11:23:40;;;;;;;;;;;25.30;55.40;;;;;;5067537;28;19929;-60
2021/09/21 11:26:08;;;;;;;;;;;25.30;55.30;;;;;;5059546;28;19932;-61
2021/09/21 11:28:38;;;;;;;;;;;25.30;55.30;;;;;;5065941;28;19979;-61
2021/09/21 11:31:06;;;;;;;;;;;25.30;55.20;;;;;;5063289;28;19924;-60
2021/09/21 11:33:35;;;;;;;;;;;25.30;55.40;;;;;;5068342;28;19999;-60
2021/09/21 11:36:04;;;;;;;;;;;25.30;55.30;;;;;;5066291;28;19940;-60
2021/09/21 11:38:36;;;;;;;;;;;25.30;55.20;;;;;;5075436;28;19925;-60
2021/09/21 11:41:03;;;;;;;;;;;25.30;55.20;;;;;;5074948;28;20025;-61
2021/09/21 11:43:30;;;;;;;;;;;25.40;55.20;;;;;;5074888;28;19925;-60
2021/09/21 11:45:58;;;;;;;;;;;25.40;55.10;;;;;;5072858;28;19925;-61
2021/09/21 11:48:25;;;;;;;;;;;25.40;55.10;;;;;;5072202;28;19925;-60
2021/09/21 11:50:54;;;;;;;;;;;25.40;55.10;;;;;;5071193;28;19928;-60
2021/09/21 11:53:22;;;;;;;;;;;25.40;55.10;;;;;;5074819;28;19924;-60
2021/09/21 11:55:52;;;;;;;;;;;25.40;55.00;;;;;;5065073;28;19939;-60
2021/09/21 11:58:23;;;;;;;;;;;25.40;55.00;;;;;;5078158;28;19924;-60
2021/09/21 12:00:51;;;;;;;;;;;25.50;55.00;;;;;;5069551;28;20002;-60
2021/09/21 12:03:20;;;;;;;;;;;25.40;54.90;;;;;;5074339;28;19924;-61
2021/09/21 12:05:50;;;;;;;;;;;25.40;54.90;;;;;;5076519;28;19935;-61
2021/09/21 12:08:19;;;;;;;;;;;25.40;54.90;;;;;;5072341;28;19982;-61
2021/09/21 12:10:54;;;;;;;;;;;25.50;54.90;;;;;;5078165;28;20408;-61
2021/09/21 12:13:22;;;;;;;;;;;25.50;55.00;;;;;;5073315;28;20434;-60
2021/09/21 12:15:52;;;;;;;;;;;25.40;54.90;;;;;;5056063;28;19925;-61
2021/09/21 12:18:21;;;;;;;;;;;25.40;54.90;;;;;;5064414;28;20340;-61
2021/09/21 12:20:52;;;;;;;;;;;25.40;54.90;;;;;;5070001;28;20384;-60
2021/09/21 12:23:23;;;;;;;;;;;25.50;55.00;;;;;;5068368;28;19924;-61
2021/09/21 12:25:52;;;;;;;;;;;25.40;54.90;;;;;;5063370;28;19932;-61
2021/09/21 12:28:31;;;;;;;;;;;25.50;55.00;;;;;;5068441;28;20236;-61
2021/09/21 12:30:59;;;;;;;;;;;25.40;54.90;;;;;;5070355;28;19925;-61
2021/09/21 12:33:33;;;;;;;;;;;25.40;54.90;;;;;;5061819;28;19933;-61
2021/09/21 12:36:00;;;;;;;;;;;25.50;54.90;;;;;;5077165;28;19931;-61
2021/09/21 12:38:27;;;;;;;;;;;25.40;54.80;;;;;;5066722;28;19932;-61
2021/09/21 12:40:56;;;;;;;;;;;25.50;54.90;;;;;;5071013;28;19932;-61
2021/09/21 12:43:27;;;;;;;;;;;25.40;54.90;;;;;;5072715;28;20386;-60
2021/09/21 12:45:56;;;;;;;;;;;25.50;55.00;;;;;;5071505;28;19968;-61
2021/09/21 12:48:25;;;;;;;;;;;25.40;54.90;;;;;;5076400;28;20011;-61
2021/09/21 12:50:52;;;;;;;;;;;25.40;55.70;;;;;;5087187;28;19955;-60
2021/09/21 12:53:20;;;;;;;;;;;25.40;55.10;;;;;;5072091;28;19925;-61
2021/09/21 12:55:59;;;;;;;;;;;25.40;55.10;;;;;;5072274;28;19977;-61
2021/09/21 12:58:27;;;;;;;;;;;25.40;55.00;;;;;;5057539;28;19968;-61
2021/09/21 13:00:54;;;;;;;;;;;25.40;55.10;;;;;;5072817;28;19962;-61
2021/09/21 13:03:21;;;;;;;;;;;25.40;55.10;;;;;;5074301;28;19969;-60
2021/09/21 13:05:49;;;;;;;;;;;25.40;55.20;;;;;;5073224;28;19983;-61
2021/09/21 13:08:18;;;;;;;;;;;25.30;55.20;;;;;;5055404;28;20134;-61
2021/09/21 13:10:46;;;;;;;;;;;25.30;55.20;;;;;;5054205;28;19924;-60
2021/09/21 13:13:13;;;;;;;;;;;25.30;55.20;;;;;;5070494;28;20351;-61
2021/09/21 13:15:41;;;;;;;;;;;25.30;55.20;;;;;;5066732;28;19924;-61
2021/09/21 13:18:10;;;;;;;;;;;25.30;55.30;;;;;;5069655;28;19978;-61
2021/09/21 13:20:37;;;;;;;;;;;25.30;55.20;;;;;;5070484;28;19932;-60
2021/09/21 13:23:06;;;;;;;;;;;25.30;55.20;;;;;;5063933;28;19924;-60
2021/09/21 13:25:34;;;;;;;;;;;25.30;55.20;;;;;;5072291;28;19924;-60
2021/09/21 13:28:05;;;;;;;;;;;25.30;55.20;;;;;;5070632;28;20417;-61
2021/09/21 13:30:33;;;;;;;;;;;25.30;55.20;;;;;;5057791;28;19960;-61
2021/09/21 13:33:00;;;;;;;;;;;25.30;55.30;;;;;;5071652;28;19955;-61
2021/09/21 13:35:27;;;;;;;;;;;25.30;55.20;;;;;;5084852;28;19957;-61
2021/09/21 13:37:54;;;;;;;;;;;25.30;55.20;;;;;;5067280;28;19925;-61
2021/09/21 13:40:21;;;;;;;;;;;25.30;55.30;;;;;;5066624;28;19924;-61
2021/09/21 13:42:50;;;;;;;;;;;25.30;55.30;;;;;;5070736;28;19947;-61
2021/09/21 13:45:18;;;;;;;;;;;25.30;55.30;;;;;;5073072;28;20338;-61
2021/09/21 13:47:46;;;;;;;;;;;25.30;55.20;;;;;;5079169;28;20001;-61
2021/09/21 13:50:13;;;;;;;;;;;25.30;55.20;;;;;;5084014;28;19928;-61
2021/09/21 13:52:40;;;;;;;;;;;25.30;55.20;;;;;;5072778;28;20003;-61
2021/09/21 13:55:07;;;;;;;;;;;25.30;55.20;;;;;;5071516;28;19986;-60
2021/09/21 13:57:35;;;;;;;;;;;25.30;55.20;;;;;;5072295;28;19928;-61
2021/09/21 14:00:03;;;;;;;;;;;25.30;55.20;;;;;;5073382;28;19928;-61
2021/09/21 14:02:30;;;;;;;;;;;25.30;55.20;;;;;;5071369;28;19929;-60
2021/09/21 14:04:57;;;;;;;;;;;25.30;55.20;;;;;;5070193;28;20315;-60
2021/09/21 14:07:24;;;;;;;;;;;25.30;55.20;;;;;;5070400;28;20338;-60
2021/09/21 14:09:51;;;;;;;;;;;25.30;55.30;;;;;;5053726;28;20328;-61
2021/09/21 14:12:18;;;;;;;;;;;25.30;55.30;;;;;;5072399;28;19924;-61
2021/09/21 14:14:45;;;;;;;;;;;25.30;55.30;;;;;;5071371;28;20289;-60
2021/09/21 14:17:12;;;;;;;;;;;25.30;55.30;;;;;;5060117;28;19936;-61
2021/09/21 14:19:39;;;;;;;;;;;25.30;55.30;;;;;;5072033;28;19924;-61
2021/09/21 14:22:07;;;;;;;;;;;25.30;55.30;;;;;;5071884;28;19931;-61
2021/09/21 14:24:34;;;;;;;;;;;25.20;55.30;;;;;;5079501;28;19924;-60
2021/09/21 14:27:06;;;;;;;;;;;25.20;55.30;;;;;;5064975;28;19971;-61
2021/09/21 14:29:33;;;;;;;;;;;25.20;55.30;;;;;;5072433;28;19959;-61
2021/09/21 14:32:00;;;;;;;;;;;25.20;55.40;;;;;;5071918;28;20031;-61
2021/09/21 14:34:27;;;;;;;;;;;25.20;55.50;;;;;;5070948;28;20407;-61
2021/09/21 14:36:57;;;;;;;;;;;25.20;55.50;;;;;;5071038;28;20317;-60